Time;durP1;ratioP1;P1;durP2;ratioP2;P2;SDS_P1;SDS_P2;PMS_P1;PMS_P2;Temp;Humidity;BMP_temperature;BMP_pressure;BME280_temperature;BME280_humidity;BME280_pressure;Samples;Min_cycle;Max_cycle;Signal;HPM_P1;HPM_P2
2022/12/13 06:56:31;;;;;;;12.88;8.40;;;;;;;;;;10581342;27;20711;-80
2022/12/13 07:01:32;;;;;;;15.55;10.90;;;;;;;;;;10578922;28;20028;-80
2022/12/13 07:06:33;;;;;;;19.70;11.23;;;;;;;;;;10578914;28;20028;-80
2022/12/13 07:11:34;;;;;;;12.15;9.30;;;;;;;;;;10578720;28;20028;-80
2022/12/13 07:16:35;;;;;;;12.38;9.82;;;;;;;;;;10579509;28;20028;-80
2022/12/13 07:21:38;;;;;;;13.88;10.15;;;;;;;;;;10579782;28;20043;-80
2022/12/13 07:26:39;;;;;;;14.50;10.18;;;;;;;;;;10580779;28;20123;-80
2022/12/13 07:31:40;;;;;;;14.52;10.30;;;;;;;;;;10578938;28;20024;-81
2022/12/13 07:36:41;;;;;;;14.02;10.82;;;;;;;;;;10580844;28;20417;-81
2022/12/13 07:41:42;;;;;;;13.27;10.38;;;;;;;;;;10581894;28;20083;-80
2022/12/13 07:46:43;;;;;;;13.82;10.43;;;;;;;;;;10584097;28;20041;-80
2022/12/13 07:51:44;;;;;;;11.82;8.80;;;;;;;;;;10587795;28;20070;-80
2022/12/13 07:56:45;;;;;;;14.68;10.10;;;;;;;;;;10580253;28;20098;-80
2022/12/13 08:01:46;;;;;;;13.77;11.10;;;;;;;;;;10579639;28;20035;-79
2022/12/13 08:06:48;;;;;;;18.73;13.85;;;;;;;;;;10556781;28;20038;-81
2022/12/13 08:11:49;;;;;;;20.90;15.38;;;;;;;;;;10552069;28;20024;-80
2022/12/13 08:16:50;;;;;;;22.58;16.25;;;;;;;;;;10551499;28;20085;-80
2022/12/13 08:21:55;;;;;;;24.38;17.13;;;;;;;;;;10552727;28;20552;-79
2022/12/13 08:27:00;;;;;;;26.40;17.80;;;;;;;;;;10556397;28;20052;-82
2022/12/13 08:32:03;;;;;;;21.23;16.40;;;;;;;;;;10551849;28;20025;-80
2022/12/13 08:37:04;;;;;;;19.65;15.18;;;;;;;;;;10550679;28;20379;-80
2022/12/13 08:42:07;;;;;;;23.35;15.90;;;;;;;;;;10549369;28;20040;-80
2022/12/13 08:47:08;;;;;;;18.52;14.85;;;;;;;;;;10550005;28;20071;-79
2022/12/13 08:52:09;;;;;;;;;;;;;;;;;;10551388;28;20089;-80
2022/12/13 08:57:10;;;;;;;24.35;18.10;;;;;;;;;;10550206;28;19957;-80
2022/12/13 09:02:14;;;;;;;18.98;14.57;;;;;;;;;;10549879;28;20038;-80
2022/12/13 09:07:15;;;;;;;20.90;16.10;;;;;;;;;;10551797;28;20020;-80
2022/12/13 09:12:16;;;;;;;22.38;15.68;;;;;;;;;;10549474;28;20090;-79
2022/12/13 09:17:17;;;;;;;19.95;14.07;;;;;;;;;;10548497;28;20051;-79
2022/12/13 09:22:20;;;;;;;19.13;13.98;;;;;;;;;;10548909;28;20024;-79
2022/12/13 09:27:21;;;;;;;18.05;12.82;;;;;;;;;;10550692;28;20016;-80
2022/12/13 09:32:22;;;;;;;17.00;12.30;;;;;;;;;;10547686;28;20462;-81
2022/12/13 09:37:23;;;;;;;18.25;14.00;;;;;;;;;;10547776;28;20482;-80
2022/12/13 09:42:26;;;;;;;18.42;12.90;;;;;;;;;;10549086;28;20031;-81
2022/12/13 09:47:30;;;;;;;18.08;12.40;;;;;;;;;;10545956;28;20043;-81
2022/12/13 09:52:35;;;;;;;18.02;12.80;;;;;;;;;;10548104;28;20040;-83
2022/12/13 09:57:37;;;;;;;16.75;12.85;;;;;;;;;;10547277;28;20055;-80
2022/12/13 10:02:38;;;;;;;;;;;;;;;;;;10545728;28;20024;-79
2022/12/13 10:07:39;;;;;;;16.95;11.65;;;;;;;;;;10546032;28;19930;-81
2022/12/13 10:12:46;;;;;;;17.00;12.18;;;;;;;;;;10547331;28;20115;-81
2022/12/13 10:17:48;;;;;;;16.73;11.63;;;;;;;;;;10552400;28;20036;-79
2022/12/13 10:22:49;;;;;;;16.05;11.43;;;;;;;;;;10548887;28;20008;-80
2022/12/13 10:27:50;;;;;;;15.65;11.60;;;;;;;;;;10546914;28;20535;-80
2022/12/13 10:32:52;;;;;;;;;;;;;;;;;;10547312;28;20036;-80
2022/12/13 10:37:54;;;;;;;19.00;13.77;;;;;;;;;;10550611;28;20349;-80
2022/12/13 10:43:29;;;;;;;18.92;13.18;;;;;;;;;;10554017;28;20085;-79
2022/12/13 10:48:37;;;;;;;15.07;11.30;;;;;;;;;;10504899;28;20498;-80
2022/12/13 10:53:46;;;;;;;15.27;11.90;;;;;;;;;;10549876;28;20040;-80
2022/12/13 10:58:48;;;;;;;16.63;11.73;;;;;;;;;;10546423;28;20066;-80
2022/12/13 11:04:02;;;;;;;17.55;12.50;;;;;;;;;;10549908;28;20389;-80
2022/12/13 11:09:12;;;;;;;14.85;11.13;;;;;;;;;;10550362;28;20020;-81
2022/12/13 11:14:17;;;;;;;17.03;11.90;;;;;;;;;;10547994;28;20028;-81
2022/12/13 11:19:22;;;;;;;15.43;11.35;;;;;;;;;;10550710;28;20218;-80
2022/12/13 11:24:31;;;;;;;23.65;14.80;;;;;;;;;;10558988;28;20020;-79
2022/12/13 11:29:49;;;;;;;16.00;11.68;;;;;;;;;;10561920;28;20028;-80
2022/12/13 11:35:03;;;;;;;14.18;10.52;;;;;;;;;;10565976;28;20085;-79
2022/12/13 11:40:04;;;;;;;20.75;15.18;;;;;;;;;;10564720;28;20028;-81
2022/12/13 11:45:16;;;;;;;19.08;12.57;;;;;;;;;;10562899;28;20442;-82
2022/12/13 11:50:23;;;;;;;19.98;12.48;;;;;;;;;;10564874;28;20039;-80
2022/12/13 11:55:34;;;;;;;16.33;11.70;;;;;;;;;;10566926;28;20058;-80
2022/12/13 12:00:38;;;;;;;16.65;10.43;;;;;;;;;;10568123;28;20076;-79
2022/12/13 12:05:42;;;;;;;15.60;10.43;;;;;;;;;;10567941;28;20100;-80
2022/12/13 12:10:44;;;;;;;14.65;11.02;;;;;;;;;;10574361;28;20020;-80
2022/12/13 12:16:06;;;;;;;15.13;11.55;;;;;;;;;;10567731;28;20036;-80
2022/12/13 12:21:07;;;;;;;;;;;;;;;;;;10568348;28;20122;-80
2022/12/13 12:26:10;;;;;;;14.82;10.85;;;;;;;;;;10566771;28;20347;-79
2022/12/13 12:31:29;;;;;;;14.13;9.70;;;;;;;;;;10563377;28;20066;-80
2022/12/13 12:36:31;;;;;;;21.45;16.95;;;;;;;;;;10569692;28;20028;-79
2022/12/13 12:41:39;;;;;;;17.98;10.48;;;;;;;;;;10565210;28;20028;-79
2022/12/13 12:46:46;;;;;;;17.33;11.32;;;;;;;;;;10567773;28;20393;-79
2022/12/13 12:51:59;;;;;;;14.82;11.85;;;;;;;;;;10565584;28;20036;-79
2022/12/13 12:57:29;;;;;;;14.60;10.80;;;;;;;;;;10562662;28;20118;-79
2022/12/13 13:02:44;;;;;;;16.80;10.30;;;;;;;;;;10476486;28;20078;-80
2022/12/13 13:07:49;;;;;;;13.77;9.50;;;;;;;;;;10565352;28;20029;-79
2022/12/13 13:12:51;;;;;;;15.90;10.68;;;;;;;;;;10566587;28;20024;-80
2022/12/13 13:17:52;;;;;;;15.07;10.68;;;;;;;;;;10572246;28;20088;-79
2022/12/13 13:22:54;;;;;;;17.13;10.85;;;;;;;;;;10563518;28;20055;-80
2022/12/13 13:28:01;;;;;;;13.45;10.57;;;;;;;;;;10563134;28;20083;-80
2022/12/13 13:33:03;;;;;;;14.75;10.30;;;;;;;;;;10560493;28;20074;-80
2022/12/13 13:38:05;;;;;;;13.95;10.27;;;;;;;;;;10558812;28;20028;-78
2022/12/13 13:43:07;;;;;;;15.93;11.27;;;;;;;;;;10558190;28;20036;-78
2022/12/13 13:48:18;;;;;;;13.38;9.75;;;;;;;;;;10557399;28;20024;-78
2022/12/13 13:53:33;;;;;;;14.27;9.70;;;;;;;;;;10556302;28;20043;-79
2022/12/13 13:58:34;;;;;;;18.83;11.02;;;;;;;;;;10554723;28;20049;-79
2022/12/13 14:03:54;;;;;;;16.55;10.60;;;;;;;;;;10553536;28;20551;-79
2022/12/13 14:09:14;;;;;;;15.82;11.18;;;;;;;;;;10553806;28;20490;-82
2022/12/13 14:14:15;;;;;;;14.25;10.88;;;;;;;;;;10555289;28;20486;-82
2022/12/13 14:19:35;;;;;;;18.85;11.95;;;;;;;;;;10553444;28;20070;-79
2022/12/13 14:24:36;;;;;;;16.77;12.50;;;;;;;;;;10552281;28;20032;-82
2022/12/13 14:29:39;;;;;;;14.75;11.20;;;;;;;;;;10551783;28;20071;-80
2022/12/13 14:34:40;;;;;;;14.50;10.57;;;;;;;;;;10546625;28;20048;-79
2022/12/13 14:39:44;;;;;;;18.23;10.98;;;;;;;;;;10548074;28;20092;-79
2022/12/13 14:44:45;;;;;;;15.77;10.85;;;;;;;;;;10545969;28;20519;-80
2022/12/13 14:49:49;;;;;;;21.42;15.52;;;;;;;;;;10548075;28;20017;-79
2022/12/13 14:54:54;;;;;;;15.65;10.35;;;;;;;;;;10545426;28;20129;-80
2022/12/13 14:59:56;;;;;;;14.60;11.48;;;;;;;;;;10548990;28;20034;-81
2022/12/13 15:05:02;;;;;;;13.98;11.38;;;;;;;;;;10543151;28;20401;-80
2022/12/13 15:10:18;;;;;;;21.58;15.50;;;;;;;;;;10547014;28;20020;-79
2022/12/13 15:15:30;;;;;;;14.98;11.55;;;;;;;;;;10553657;28;20028;-80
2022/12/13 15:20:32;;;;;;;13.82;10.43;;;;;;;;;;10565915;28;20029;-79
2022/12/13 15:25:34;;;;;;;13.90;10.02;;;;;;;;;;10580927;28;20035;-80
2022/12/13 15:30:35;;;;;;;17.13;11.90;;;;;;;;;;10575759;28;20028;-83
2022/12/13 15:35:36;;;;;;;;;;;;;;;;;;10574871;28;20024;-78
2022/12/13 15:40:37;;;;;;;17.00;11.75;;;;;;;;;;10569610;28;19911;-79
2022/12/13 15:45:38;;;;;;;14.85;10.52;;;;;;;;;;10572040;28;20510;-80
2022/12/13 15:50:40;;;;;;;14.68;11.23;;;;;;;;;;10568936;28;20020;-79
2022/12/13 15:55:41;;;;;;;17.17;11.90;;;;;;;;;;10570877;28;20028;-80
2022/12/13 16:00:47;;;;;;;14.38;9.73;;;;;;;;;;10572029;28;20054;-81
2022/12/13 16:05:57;;;;;;;16.80;11.13;;;;;;;;;;10571057;28;20032;-78
2022/12/13 16:10:59;;;;;;;14.93;10.60;;;;;;;;;;10573954;28;20024;-79
2022/12/13 16:16:02;;;;;;;14.93;11.55;;;;;;;;;;10572536;28;20054;-80
2022/12/13 16:21:03;;;;;;;15.30;10.00;;;;;;;;;;10570435;28;20044;-79
2022/12/13 16:26:04;;;;;;;13.50;10.25;;;;;;;;;;10566468;28;20084;-78
2022/12/13 16:31:11;;;;;;;16.02;11.15;;;;;;;;;;10563127;28;20032;-78
2022/12/13 16:36:12;;;;;;;16.40;10.32;;;;;;;;;;10565336;28;20028;-77
2022/12/13 16:41:14;;;;;;;14.02;9.80;;;;;;;;;;10558031;28;20084;-79
2022/12/13 16:46:15;;;;;;;14.50;8.95;;;;;;;;;;10557672;28;20032;-78
2022/12/13 16:51:17;;;;;;;13.57;9.98;;;;;;;;;;10560873;28;20024;-78
2022/12/13 16:56:20;;;;;;;14.55;10.32;;;;;;;;;;10556879;28;20039;-78
2022/12/13 17:01:21;;;;;;;12.63;10.02;;;;;;;;;;10557477;28;20087;-77
2022/12/13 17:06:23;;;;;;;11.85;9.50;;;;;;;;;;10549390;28;20035;-79
2022/12/13 17:11:24;;;;;;;12.30;9.93;;;;;;;;;;10548623;28;20036;-80
2022/12/13 17:16:25;;;;;;;13.73;9.55;;;;;;;;;;10558713;28;20068;-79
2022/12/13 17:21:28;;;;;;;;;;;;;;;;;;10569100;28;20024;-80
2022/12/13 17:26:29;;;;;;;18.33;11.80;;;;;;;;;;10574252;28;19915;-80
2022/12/13 17:31:32;;;;;;;14.68;10.80;;;;;;;;;;10580271;28;20059;-81
2022/12/13 17:36:33;;;;;;;13.35;10.45;;;;;;;;;;10584438;28;20016;-79
2022/12/13 17:41:34;;;;;;;13.75;9.82;;;;;;;;;;10586083;28;20078;-80
2022/12/13 17:46:35;;;;;;;12.60;9.50;;;;;;;;;;10570620;28;20035;-80
2022/12/13 17:51:36;;;;;;;;;;;;;;;;;;10572905;28;20012;-81
2022/12/13 17:56:37;;;;;;;13.60;10.27;;;;;;;;;;10560962;28;19994;-81
2022/12/13 18:01:38;;;;;;;15.73;11.50;;;;;;;;;;10546279;28;20032;-80
2022/12/13 18:06:39;;;;;;;11.13;8.95;;;;;;;;;;10545698;28;20020;-80
2022/12/13 18:11:40;;;;;;;12.18;9.63;;;;;;;;;;10546087;28;20028;-80
2022/12/13 18:16:41;;;;;;;14.25;10.52;;;;;;;;;;10547942;28;20032;-80
2022/12/13 18:21:43;;;;;;;13.43;10.07;;;;;;;;;;10546212;28;20502;-80
2022/12/13 18:26:44;;;;;;;12.82;9.55;;;;;;;;;;10548129;28;20055;-80
2022/12/13 18:31:45;;;;;;;14.98;11.00;;;;;;;;;;10549468;28;20505;-80
2022/12/13 18:36:46;;;;;;;16.83;12.68;;;;;;;;;;10548313;28;20562;-80
2022/12/13 18:41:47;;;;;;;12.80;9.90;;;;;;;;;;10551189;28;20098;-80
2022/12/13 18:46:49;;;;;;;;;;;;;;;;;;10551487;28;20055;-80
2022/12/13 18:51:50;;;;;;;10.43;8.70;;;;;;;;;;10545336;28;20388;-80
2022/12/13 18:56:51;;;;;;;14.02;10.73;;;;;;;;;;10544912;28;20032;-80
2022/12/13 19:01:53;;;;;;;13.18;9.73;;;;;;;;;;10544834;28;20031;-80
2022/12/13 19:06:55;;;;;;;10.55;7.70;;;;;;;;;;10546634;28;20039;-80
2022/12/13 19:11:56;;;;;;;11.35;8.68;;;;;;;;;;10544413;28;20028;-81
2022/12/13 19:16:57;;;;;;;12.70;9.82;;;;;;;;;;10544615;28;20435;-80
2022/12/13 19:21:58;;;;;;;14.80;11.68;;;;;;;;;;10544713;28;20119;-80
2022/12/13 19:26:59;;;;;;;10.77;8.32;;;;;;;;;;10545266;28;20058;-81
2022/12/13 19:32:00;;;;;;;12.52;9.20;;;;;;;;;;10544724;28;20126;-81
2022/12/13 19:37:01;;;;;;;19.40;13.68;;;;;;;;;;10548169;28;20012;-80
2022/12/13 19:42:02;;;;;;;;;;;;;;;;;;10546107;28;20024;-81
2022/12/13 19:47:03;;;;;;;11.43;8.02;;;;;;;;;;10552708;28;19904;-80
2022/12/13 19:52:05;;;;;;;12.90;10.27;;;;;;;;;;10556136;28;20044;-80
2022/12/13 19:57:06;;;;;;;13.73;8.98;;;;;;;;;;10546342;28;20045;-80
2022/12/13 20:02:08;;;;;;;14.15;10.85;;;;;;;;;;10550335;28;20104;-81
2022/12/13 20:07:10;;;;;;;11.85;8.98;;;;;;;;;;10551568;28;20061;-80
2022/12/13 20:12:11;;;;;;;11.82;9.13;;;;;;;;;;10552996;28;20027;-81
2022/12/13 20:17:12;;;;;;;13.20;10.07;;;;;;;;;;10551450;28;20031;-79
